sensor_id;sensor_type;location;lat;lon;timestamp;pressure;altitude;pressure_sealevel;temperature;humidity
61436;BME280;47304;47.456;19.160;2023-03-04T00:00:37;100379.85;;;1.31;66.12
61436;BME280;47304;47.456;19.160;2023-03-04T00:03:03;100376.19;;;1.25;66.34
61436;BME280;47304;47.456;19.160;2023-03-04T00:05:30;100377.57;;;1.20;66.23
61436;BME280;47304;47.456;19.160;2023-03-04T00:07:56;100375.52;;;1.16;66.40
61436;BME280;47304;47.456;19.160;2023-03-04T00:10:23;100372.50;;;1.09;66.85
61436;BME280;47304;47.456;19.160;2023-03-04T00:12:50;100376.77;;;1.03;67.11
61436;BME280;47304;47.456;19.160;2023-03-04T00:15:16;100375.53;;;0.98;67.50
61436;BME280;47304;47.456;19.160;2023-03-04T00:17:43;100375.55;;;0.94;67.18
61436;BME280;47304;47.456;19.160;2023-03-04T00:20:10;100370.42;;;0.91;66.94
61436;BME280;47304;47.456;19.160;2023-03-04T00:22:37;100371.98;;;0.87;67.17
61436;BME280;47304;47.456;19.160;2023-03-04T00:25:04;100370.04;;;0.85;67.24
61436;BME280;47304;47.456;19.160;2023-03-04T00:27:30;100371.17;;;0.84;67.36
61436;BME280;47304;47.456;19.160;2023-03-04T00:29:57;100375.82;;;0.83;67.45
61436;BME280;47304;47.456;19.160;2023-03-04T00:32:23;100375.95;;;0.82;67.35
61436;BME280;47304;47.456;19.160;2023-03-04T00:34:50;100372.30;;;0.82;67.35
61436;BME280;47304;47.456;19.160;2023-03-04T00:37:16;100372.74;;;0.80;67.43
61436;BME280;47304;47.456;19.160;2023-03-04T00:39:43;100373.36;;;0.78;67.43
61436;BME280;47304;47.456;19.160;2023-03-04T00:42:09;100371.94;;;0.76;67.41
61436;BME280;47304;47.456;19.160;2023-03-04T00:44:36;100370.17;;;0.75;67.43
61436;BME280;47304;47.456;19.160;2023-03-04T00:47:02;100366.54;;;0.75;67.51
61436;BME280;47304;47.456;19.160;2023-03-04T00:49:29;100366.70;;;0.74;67.37
61436;BME280;47304;47.456;19.160;2023-03-04T00:51:55;100367.80;;;0.72;67.46
61436;BME280;47304;47.456;19.160;2023-03-04T00:54:22;100364.34;;;0.67;67.84
61436;BME280;47304;47.456;19.160;2023-03-04T00:56:48;100364.17;;;0.63;68.28
61436;BME280;47304;47.456;19.160;2023-03-04T00:59:15;100356.63;;;0.60;68.18
61436;BME280;47304;47.456;19.160;2023-03-04T01:01:41;100352.80;;;0.58;68.12
61436;BME280;47304;47.456;19.160;2023-03-04T01:04:08;100351.38;;;0.57;68.37
61436;BME280;47304;47.456;19.160;2023-03-04T01:06:35;100350.59;;;0.55;68.64
61436;BME280;47304;47.456;19.160;2023-03-04T01:09:01;100351.72;;;0.54;68.71
61436;BME280;47304;47.456;19.160;2023-03-04T01:11:28;100354.68;;;0.50;68.42
61436;BME280;47304;47.456;19.160;2023-03-04T01:13:54;100349.37;;;0.46;68.55
61436;BME280;47304;47.456;19.160;2023-03-04T01:16:21;100345.95;;;0.43;68.44
61436;BME280;47304;47.456;19.160;2023-03-04T01:18:47;100345.77;;;0.38;68.85
61436;BME280;47304;47.456;19.160;2023-03-04T01:21:14;100344.31;;;0.32;68.94
61436;BME280;47304;47.456;19.160;2023-03-04T01:23:40;100344.31;;;0.28;68.83
61436;BME280;47304;47.456;19.160;2023-03-04T01:26:07;100344.23;;;0.26;68.87
61436;BME280;47304;47.456;19.160;2023-03-04T01:28:33;100338.60;;;0.23;68.74
61436;BME280;47304;47.456;19.160;2023-03-04T01:31:03;100331.55;;;0.19;69.12
61436;BME280;47304;47.456;19.160;2023-03-04T01:33:30;100331.64;;;0.17;69.16
61436;BME280;47304;47.456;19.160;2023-03-04T01:35:56;100325.20;;;0.15;69.01
61436;BME280;47304;47.456;19.160;2023-03-04T01:38:23;100325.81;;;0.13;69.12
61436;BME280;47304;47.456;19.160;2023-03-04T01:40:50;100323.77;;;0.09;69.04
61436;BME280;47304;47.456;19.160;2023-03-04T01:43:24;100323.83;;;0.07;68.96
61436;BME280;47304;47.456;19.160;2023-03-04T01:45:52;100318.60;;;0.06;68.95
61436;BME280;47304;47.456;19.160;2023-03-04T01:48:25;100315.30;;;0.04;68.79
61436;BME280;47304;47.456;19.160;2023-03-04T01:50:52;100311.23;;;0.02;68.98
61436;BME280;47304;47.456;19.160;2023-03-04T01:53:24;100314.83;;;-0.03;69.10
61436;BME280;47304;47.456;19.160;2023-03-04T01:56:22;100314.09;;;-0.04;69.41
61436;BME280;47304;47.456;19.160;2023-03-04T02:02:04;100317.28;;;-0.05;69.49
61436;BME280;47304;47.456;19.160;2023-03-04T02:04:31;100310.77;;;-0.09;69.20
61436;BME280;47304;47.456;19.160;2023-03-04T02:07:01;100308.38;;;-0.13;69.43
61436;BME280;47304;47.456;19.160;2023-03-04T02:09:28;100305.65;;;-0.17;69.48
61436;BME280;47304;47.456;19.160;2023-03-04T02:11:56;100302.95;;;-0.19;69.59
61436;BME280;47304;47.456;19.160;2023-03-04T02:14:23;100299.95;;;-0.21;69.75
61436;BME280;47304;47.456;19.160;2023-03-04T02:16:50;100302.30;;;-0.22;69.75
61436;BME280;47304;47.456;19.160;2023-03-04T02:21:52;100291.95;;;-0.23;69.80
61436;BME280;47304;47.456;19.160;2023-03-04T02:24:32;100288.80;;;-0.24;69.89
61436;BME280;47304;47.456;19.160;2023-03-04T02:27:00;100284.61;;;-0.25;69.81
61436;BME280;47304;47.456;19.160;2023-03-04T02:29:27;100279.00;;;-0.28;69.48
61436;BME280;47304;47.456;19.160;2023-03-04T02:31:54;100278.06;;;-0.30;69.62
61436;BME280;47304;47.456;19.160;2023-03-04T02:34:24;100275.56;;;-0.32;69.45
61436;BME280;47304;47.456;19.160;2023-03-04T02:36:53;100276.44;;;-0.36;69.66
61436;BME280;47304;47.456;19.160;2023-03-04T02:41:48;100273.98;;;-0.45;69.54
61436;BME280;47304;47.456;19.160;2023-03-04T02:44:18;100273.66;;;-0.49;69.56
61436;BME280;47304;47.456;19.160;2023-03-04T02:46:45;100271.65;;;-0.52;69.65
61436;BME280;47304;47.456;19.160;2023-03-04T02:49:12;100264.86;;;-0.53;69.66
61436;BME280;47304;47.456;19.160;2023-03-04T02:51:39;100268.37;;;-0.56;69.84
61436;BME280;47304;47.456;19.160;2023-03-04T02:54:17;100264.73;;;-0.56;69.80
61436;BME280;47304;47.456;19.160;2023-03-04T02:56:46;100264.55;;;-0.57;69.67
61436;BME280;47304;47.456;19.160;2023-03-04T02:59:13;100262.15;;;-0.56;69.66
61436;BME280;47304;47.456;19.160;2023-03-04T03:01:40;100257.74;;;-0.55;69.66
61436;BME280;47304;47.456;19.160;2023-03-04T03:04:07;100256.52;;;-0.55;69.58
61436;BME280;47304;47.456;19.160;2023-03-04T03:06:34;100253.38;;;-0.56;69.56
61436;BME280;47304;47.456;19.160;2023-03-04T03:09:01;100256.73;;;-0.59;69.78
61436;BME280;47304;47.456;19.160;2023-03-04T03:11:28;100257.66;;;-0.60;69.63
61436;BME280;47304;47.456;19.160;2023-03-04T03:13:55;100260.71;;;-0.62;69.71
61436;BME280;47304;47.456;19.160;2023-03-04T03:16:22;100260.64;;;-0.64;69.48
61436;BME280;47304;47.456;19.160;2023-03-04T03:18:49;100259.23;;;-0.64;69.57
61436;BME280;47304;47.456;19.160;2023-03-04T03:21:15;100254.55;;;-0.65;69.69
61436;BME280;47304;47.456;19.160;2023-03-04T03:23:42;100249.46;;;-0.67;69.58
61436;BME280;47304;47.456;19.160;2023-03-04T03:26:08;100245.30;;;-0.68;69.51
61436;BME280;47304;47.456;19.160;2023-03-04T03:28:35;100243.24;;;-0.68;69.63
61436;BME280;47304;47.456;19.160;2023-03-04T03:31:01;100242.20;;;-0.68;69.47
61436;BME280;47304;47.456;19.160;2023-03-04T03:33:28;100240.27;;;-0.69;69.48
61436;BME280;47304;47.456;19.160;2023-03-04T03:35:56;100239.36;;;-0.70;69.72
61436;BME280;47304;47.456;19.160;2023-03-04T03:38:22;100238.67;;;-0.70;69.65
61436;BME280;47304;47.456;19.160;2023-03-04T03:40:49;100229.86;;;-0.71;69.60
61436;BME280;47304;47.456;19.160;2023-03-04T03:43:15;100225.92;;;-0.70;69.39
61436;BME280;47304;47.456;19.160;2023-03-04T03:45:42;100219.95;;;-0.70;69.38
61436;BME280;47304;47.456;19.160;2023-03-04T03:48:08;100221.32;;;-0.70;69.27
61436;BME280;47304;47.456;19.160;2023-03-04T03:50:35;100225.39;;;-0.71;69.00
61436;BME280;47304;47.456;19.160;2023-03-04T03:53:02;100225.34;;;-0.72;69.00
61436;BME280;47304;47.456;19.160;2023-03-04T03:55:28;100223.45;;;-0.73;68.98
61436;BME280;47304;47.456;19.160;2023-03-04T03:57:55;100225.66;;;-0.72;68.79
61436;BME280;47304;47.456;19.160;2023-03-04T04:00:21;100226.67;;;-0.73;68.64
61436;BME280;47304;47.456;19.160;2023-03-04T04:02:48;100224.73;;;-0.74;68.33
61436;BME280;47304;47.456;19.160;2023-03-04T04:05:14;100232.25;;;-0.75;67.81
61436;BME280;47304;47.456;19.160;2023-03-04T04:07:41;100231.52;;;-0.77;67.46
61436;BME280;47304;47.456;19.160;2023-03-04T04:10:09;100229.91;;;-0.78;67.17
61436;BME280;47304;47.456;19.160;2023-03-04T04:12:36;100227.11;;;-0.79;66.92
61436;BME280;47304;47.456;19.160;2023-03-04T04:15:03;100234.70;;;-0.79;66.75
61436;BME280;47304;47.456;19.160;2023-03-04T04:17:29;100229.60;;;-0.77;66.66
61436;BME280;47304;47.456;19.160;2023-03-04T04:19:56;100228.24;;;-0.77;66.31
61436;BME280;47304;47.456;19.160;2023-03-04T04:22:22;100224.79;;;-0.77;66.14
61436;BME280;47304;47.456;19.160;2023-03-04T04:24:49;100224.43;;;-0.78;66.22
61436;BME280;47304;47.456;19.160;2023-03-04T04:27:15;100223.73;;;-0.77;66.19
61436;BME280;47304;47.456;19.160;2023-03-04T04:29:42;100229.73;;;-0.78;66.16
61436;BME280;47304;47.456;19.160;2023-03-04T04:32:08;100231.44;;;-0.78;66.24
61436;BME280;47304;47.456;19.160;2023-03-04T04:34:35;100229.02;;;-0.79;66.11
61436;BME280;47304;47.456;19.160;2023-03-04T04:37:02;100228.64;;;-0.80;66.58
61436;BME280;47304;47.456;19.160;2023-03-04T04:39:28;100227.41;;;-0.80;66.87
61436;BME280;47304;47.456;19.160;2023-03-04T04:41:55;100228.13;;;-0.80;66.97
61436;BME280;47304;47.456;19.160;2023-03-04T04:44:21;100222.75;;;-0.81;66.95
61436;BME280;47304;47.456;19.160;2023-03-04T04:46:48;100225.13;;;-0.82;66.99
61436;BME280;47304;47.456;19.160;2023-03-04T04:49:14;100224.08;;;-0.82;66.96
61436;BME280;47304;47.456;19.160;2023-03-04T04:51:41;100220.92;;;-0.83;66.73
61436;BME280;47304;47.456;19.160;2023-03-04T04:54:07;100216.92;;;-0.84;66.55
61436;BME280;47304;47.456;19.160;2023-03-04T04:56:34;100214.84;;;-0.85;66.66
61436;BME280;47304;47.456;19.160;2023-03-04T04:59:03;100219.25;;;-0.86;66.42
61436;BME280;47304;47.456;19.160;2023-03-04T05:01:30;100219.27;;;-0.89;66.44
61436;BME280;47304;47.456;19.160;2023-03-04T05:03:57;100226.44;;;-0.91;66.29
61436;BME280;47304;47.456;19.160;2023-03-04T05:06:24;100221.98;;;-0.94;66.24
61436;BME280;47304;47.456;19.160;2023-03-04T05:08:50;100226.88;;;-0.97;66.18
61436;BME280;47304;47.456;19.160;2023-03-04T05:11:18;100222.30;;;-0.99;66.08
61436;BME280;47304;47.456;19.160;2023-03-04T05:13:45;100225.88;;;-1.00;66.10
61436;BME280;47304;47.456;19.160;2023-03-04T05:16:12;100224.65;;;-1.00;66.01
61436;BME280;47304;47.456;19.160;2023-03-04T05:18:39;100228.63;;;-1.00;66.12
61436;BME280;47304;47.456;19.160;2023-03-04T05:21:06;100226.55;;;-0.96;66.19
61436;BME280;47304;47.456;19.160;2023-03-04T05:23:35;100223.59;;;-0.93;66.19
61436;BME280;47304;47.456;19.160;2023-03-04T05:26:03;100226.23;;;-0.87;66.25
61436;BME280;47304;47.456;19.160;2023-03-04T05:28:31;100229.39;;;-0.82;66.13
61436;BME280;47304;47.456;19.160;2023-03-04T05:30:59;100229.00;;;-0.71;66.46
61436;BME280;47304;47.456;19.160;2023-03-04T05:33:25;100230.98;;;-0.61;66.20
61436;BME280;47304;47.456;19.160;2023-03-04T05:35:52;100236.58;;;-0.54;65.99
61436;BME280;47304;47.456;19.160;2023-03-04T05:38:19;100237.35;;;-0.49;65.77
61436;BME280;47304;47.456;19.160;2023-03-04T05:40:47;100235.58;;;-0.45;65.66
61436;BME280;47304;47.456;19.160;2023-03-04T05:43:14;100241.09;;;-0.41;65.54
61436;BME280;47304;47.456;19.160;2023-03-04T05:45:41;100245.52;;;-0.38;65.54
61436;BME280;47304;47.456;19.160;2023-03-04T05:48:08;100249.30;;;-0.34;65.62
61436;BME280;47304;47.456;19.160;2023-03-04T05:50:35;100251.73;;;-0.30;65.47
61436;BME280;47304;47.456;19.160;2023-03-04T05:53:01;100248.13;;;-0.25;65.30
61436;BME280;47304;47.456;19.160;2023-03-04T05:55:28;100250.87;;;-0.21;65.08
61436;BME280;47304;47.456;19.160;2023-03-04T05:57:55;100252.55;;;-0.18;64.92
61436;BME280;47304;47.456;19.160;2023-03-04T06:00:22;100253.05;;;-0.18;64.62
61436;BME280;47304;47.456;19.160;2023-03-04T06:02:48;100253.55;;;-0.19;64.64
61436;BME280;47304;47.456;19.160;2023-03-04T06:05:15;100258.77;;;-0.17;64.53
61436;BME280;47304;47.456;19.160;2023-03-04T06:07:42;100260.31;;;-0.13;64.59
61436;BME280;47304;47.456;19.160;2023-03-04T06:10:13;100258.60;;;-0.09;64.50
61436;BME280;47304;47.456;19.160;2023-03-04T06:12:40;100257.39;;;-0.05;64.42
61436;BME280;47304;47.456;19.160;2023-03-04T06:15:08;100261.02;;;-0.00;64.26
61436;BME280;47304;47.456;19.160;2023-03-04T06:17:35;100265.30;;;0.04;64.23
61436;BME280;47304;47.456;19.160;2023-03-04T06:20:03;100270.92;;;0.06;64.07
61436;BME280;47304;47.456;19.160;2023-03-04T06:22:30;100269.54;;;0.10;63.93
61436;BME280;47304;47.456;19.160;2023-03-04T06:24:56;100271.77;;;0.14;63.89
61436;BME280;47304;47.456;19.160;2023-03-04T06:27:23;100270.20;;;0.18;63.89
61436;BME280;47304;47.456;19.160;2023-03-04T06:29:49;100274.08;;;0.25;63.86
61436;BME280;47304;47.456;19.160;2023-03-04T06:32:16;100274.02;;;0.33;63.67
61436;BME280;47304;47.456;19.160;2023-03-04T06:34:43;100272.09;;;0.40;63.46
61436;BME280;47304;47.456;19.160;2023-03-04T06:37:09;100275.12;;;0.48;63.33
61436;BME280;47304;47.456;19.160;2023-03-04T06:39:36;100271.66;;;0.56;63.08
61436;BME280;47304;47.456;19.160;2023-03-04T06:42:02;100274.05;;;0.65;62.89
61436;BME280;47304;47.456;19.160;2023-03-04T06:44:29;100267.70;;;0.74;62.78
61436;BME280;47304;47.456;19.160;2023-03-04T06:46:56;100273.27;;;0.85;62.48
61436;BME280;47304;47.456;19.160;2023-03-04T06:49:22;100269.48;;;0.95;62.32
61436;BME280;47304;47.456;19.160;2023-03-04T06:51:49;100269.84;;;1.04;62.11
61436;BME280;47304;47.456;19.160;2023-03-04T06:54:16;100269.75;;;1.12;61.87
61436;BME280;47304;47.456;19.160;2023-03-04T06:56:43;100274.48;;;1.19;61.67
61436;BME280;47304;47.456;19.160;2023-03-04T06:59:09;100273.66;;;1.25;61.36
61436;BME280;47304;47.456;19.160;2023-03-04T07:01:36;100273.52;;;1.30;61.33
61436;BME280;47304;47.456;19.160;2023-03-04T07:04:02;100270.44;;;1.36;61.00
61436;BME280;47304;47.456;19.160;2023-03-04T07:06:29;100273.40;;;1.42;60.99
61436;BME280;47304;47.456;19.160;2023-03-04T07:08:56;100269.13;;;1.48;60.94
61436;BME280;47304;47.456;19.160;2023-03-04T07:11:23;100262.45;;;1.55;60.86
61436;BME280;47304;47.456;19.160;2023-03-04T07:13:50;100265.73;;;1.65;61.00
61436;BME280;47304;47.456;19.160;2023-03-04T07:16:19;100265.91;;;1.76;60.83
61436;BME280;47304;47.456;19.160;2023-03-04T07:18:47;100263.52;;;1.87;60.72
61436;BME280;47304;47.456;19.160;2023-03-04T07:21:15;100265.89;;;1.96;60.63
61436;BME280;47304;47.456;19.160;2023-03-04T07:23:42;100264.14;;;2.06;60.37
61436;BME280;47304;47.456;19.160;2023-03-04T07:26:09;100263.36;;;2.14;60.23
61436;BME280;47304;47.456;19.160;2023-03-04T07:28:37;100260.55;;;2.24;60.34
61436;BME280;47304;47.456;19.160;2023-03-04T07:31:13;100259.20;;;2.36;60.25
61436;BME280;47304;47.456;19.160;2023-03-04T07:33:44;100256.94;;;2.52;60.27
61436;BME280;47304;47.456;19.160;2023-03-04T07:36:11;100254.31;;;2.69;59.81
61436;BME280;47304;47.456;19.160;2023-03-04T07:38:37;100250.34;;;2.87;59.92
61436;BME280;47304;47.456;19.160;2023-03-04T07:41:04;100248.05;;;3.10;58.96
61436;BME280;47304;47.456;19.160;2023-03-04T07:43:30;100250.17;;;3.37;58.56
61436;BME280;47304;47.456;19.160;2023-03-04T07:45:59;100249.19;;;3.67;57.09
61436;BME280;47304;47.456;19.160;2023-03-04T07:48:26;100247.14;;;3.95;56.14
61436;BME280;47304;47.456;19.160;2023-03-04T07:53:30;100243.51;;;4.48;54.62
61436;BME280;47304;47.456;19.160;2023-03-04T07:55:57;100242.98;;;4.72;54.16
61436;BME280;47304;47.456;19.160;2023-03-04T07:58:27;100237.88;;;4.94;52.43
61436;BME280;47304;47.456;19.160;2023-03-04T08:00:54;100240.71;;;5.14;52.08
61436;BME280;47304;47.456;19.160;2023-03-04T08:03:20;100238.82;;;5.33;50.68
61436;BME280;47304;47.456;19.160;2023-03-04T08:05:47;100238.09;;;5.50;50.31
61436;BME280;47304;47.456;19.160;2023-03-04T08:08:13;100237.36;;;5.68;49.12
61436;BME280;47304;47.456;19.160;2023-03-04T08:10:42;100237.13;;;5.85;47.62
61436;BME280;47304;47.456;19.160;2023-03-04T08:13:09;100237.93;;;6.01;47.57
61436;BME280;47304;47.456;19.160;2023-03-04T08:15:39;100236.97;;;6.17;47.39
61436;BME280;47304;47.456;19.160;2023-03-04T08:18:06;100236.70;;;6.34;46.65
61436;BME280;47304;47.456;19.160;2023-03-04T08:20:32;100237.09;;;6.49;46.79
61436;BME280;47304;47.456;19.160;2023-03-04T08:22:59;100232.23;;;6.63;45.75
61436;BME280;47304;47.456;19.160;2023-03-04T08:25:25;100228.52;;;6.73;46.22
61436;BME280;47304;47.456;19.160;2023-03-04T08:27:52;100226.95;;;6.86;45.42
61436;BME280;47304;47.456;19.160;2023-03-04T08:30:18;100226.23;;;7.00;43.79
61436;BME280;47304;47.456;19.160;2023-03-04T08:32:45;100223.79;;;7.13;43.45
61436;BME280;47304;47.456;19.160;2023-03-04T08:35:12;100227.61;;;7.29;42.89
61436;BME280;47304;47.456;19.160;2023-03-04T08:37:38;100227.55;;;7.39;41.29
61436;BME280;47304;47.456;19.160;2023-03-04T08:40:05;100221.88;;;7.46;41.00
61436;BME280;47304;47.456;19.160;2023-03-04T08:42:32;100220.39;;;7.55;41.48
61436;BME280;47304;47.456;19.160;2023-03-04T08:44:58;100220.48;;;7.66;40.91
61436;BME280;47304;47.456;19.160;2023-03-04T08:47:25;100218.45;;;7.72;40.18
61436;BME280;47304;47.456;19.160;2023-03-04T08:49:51;100215.15;;;7.75;40.16
61436;BME280;47304;47.456;19.160;2023-03-04T08:52:18;100214.31;;;7.78;40.40
61436;BME280;47304;47.456;19.160;2023-03-04T08:54:44;100210.02;;;7.87;40.53
61436;BME280;47304;47.456;19.160;2023-03-04T08:57:11;100212.55;;;7.97;40.85
61436;BME280;47304;47.456;19.160;2023-03-04T08:59:37;100209.16;;;8.11;40.74
61436;BME280;47304;47.456;19.160;2023-03-04T09:02:04;100213.45;;;8.27;40.36
61436;BME280;47304;47.456;19.160;2023-03-04T09:04:31;100207.27;;;8.40;40.00
61436;BME280;47304;47.456;19.160;2023-03-04T09:06:57;100205.17;;;8.70;39.53
61436;BME280;47304;47.456;19.160;2023-03-04T09:09:24;100202.58;;;9.37;39.68
61436;BME280;47304;47.456;19.160;2023-03-04T09:11:50;100195.36;;;11.13;38.13
61436;BME280;47304;47.456;19.160;2023-03-04T09:14:17;100182.23;;;14.58;33.80
61436;BME280;47304;47.456;19.160;2023-03-04T09:16:44;100173.46;;;17.87;29.53
61436;BME280;47304;47.456;19.160;2023-03-04T09:19:10;100163.44;;;20.27;25.68
61436;BME280;47304;47.456;19.160;2023-03-04T09:21:37;100160.30;;;22.35;23.81
61436;BME280;47304;47.456;19.160;2023-03-04T09:24:03;100158.52;;;24.23;21.53
61436;BME280;47304;47.456;19.160;2023-03-04T09:26:30;100157.73;;;25.75;19.00
61436;BME280;47304;47.456;19.160;2023-03-04T09:28:58;100155.63;;;26.84;17.22
61436;BME280;47304;47.456;19.160;2023-03-04T09:31:27;100153.25;;;27.95;17.81
61436;BME280;47304;47.456;19.160;2023-03-04T09:33:55;100151.02;;;29.18;15.57
61436;BME280;47304;47.456;19.160;2023-03-04T09:36:22;100150.96;;;29.90;14.92
61436;BME280;47304;47.456;19.160;2023-03-04T09:38:49;100146.63;;;30.33;14.33
61436;BME280;47304;47.456;19.160;2023-03-04T09:41:43;100146.15;;;31.10;14.31
61436;BME280;47304;47.456;19.160;2023-03-04T09:44:20;100147.08;;;32.11;13.70
61436;BME280;47304;47.456;19.160;2023-03-04T09:46:48;100140.19;;;32.89;12.96
61436;BME280;47304;47.456;19.160;2023-03-04T09:49:16;100134.30;;;33.21;12.30
61436;BME280;47304;47.456;19.160;2023-03-04T09:52:01;100135.95;;;33.41;12.06
61436;BME280;47304;47.456;19.160;2023-03-04T10:00:22;100124.50;;;33.84;11.43
61436;BME280;47304;47.456;19.160;2023-03-04T10:05:47;100125.18;;;34.31;10.53
61436;BME280;47304;47.456;19.160;2023-03-04T10:08:59;100117.56;;;33.70;10.57
61436;BME280;47304;47.456;19.160;2023-03-04T10:11:16;100117.33;;;33.58;10.76
61436;BME280;47304;47.456;19.160;2023-03-04T10:16:20;100114.04;;;33.64;10.59
61436;BME280;47304;47.456;19.160;2023-03-04T10:18:53;100115.98;;;33.83;10.67
61436;BME280;47304;47.456;19.160;2023-03-04T10:21:22;100117.08;;;34.18;10.47
61436;BME280;47304;47.456;19.160;2023-03-04T10:23:51;100114.60;;;34.52;10.05
61436;BME280;47304;47.456;19.160;2023-03-04T10:26:20;100112.64;;;34.64;9.98
61436;BME280;47304;47.456;19.160;2023-03-04T10:28:48;100113.00;;;34.85;10.11
61436;BME280;47304;47.456;19.160;2023-03-04T10:33:44;100108.58;;;36.21;9.43
61436;BME280;47304;47.456;19.160;2023-03-04T10:41:26;100097.22;;;36.69;8.73
61436;BME280;47304;47.456;19.160;2023-03-04T10:46:41;100094.82;;;32.80;10.65
61436;BME280;47304;47.456;19.160;2023-03-04T10:49:09;100086.92;;;30.84;11.80
61436;BME280;47304;47.456;19.160;2023-03-04T10:54:45;100086.81;;;26.27;14.61
61436;BME280;47304;47.456;19.160;2023-03-04T10:57:15;100081.67;;;24.36;16.24
61436;BME280;47304;47.456;19.160;2023-03-04T11:10:31;100057.06;;;27.43;14.91
61436;BME280;47304;47.456;19.160;2023-03-04T11:18:18;100045.02;;;33.39;11.08
61436;BME280;47304;47.456;19.160;2023-03-04T11:20:47;100039.23;;;34.77;10.02
61436;BME280;47304;47.456;19.160;2023-03-04T11:23:19;100040.94;;;35.52;9.46
61436;BME280;47304;47.456;19.160;2023-03-04T11:26:09;100032.42;;;36.45;8.72
61436;BME280;47304;47.456;19.160;2023-03-04T11:31:24;100035.48;;;36.90;8.41
61436;BME280;47304;47.456;19.160;2023-03-04T11:34:03;100031.96;;;37.25;8.16
61436;BME280;47304;47.456;19.160;2023-03-04T11:39:29;100026.77;;;37.59;7.98
61436;BME280;47304;47.456;19.160;2023-03-04T11:42:03;100028.04;;;37.11;7.92
61436;BME280;47304;47.456;19.160;2023-03-04T11:44:31;100022.02;;;36.18;8.21
61436;BME280;47304;47.456;19.160;2023-03-04T11:55:16;100011.20;;;30.39;11.14
61436;BME280;47304;47.456;19.160;2023-03-04T12:14:36;100017.75;;;18.18;21.05
61436;BME280;47304;47.456;19.160;2023-03-04T12:22:40;100007.41;;;15.52;24.41
61436;BME280;47304;47.456;19.160;2023-03-04T12:33:20;100001.98;;;14.30;27.07
61436;BME280;47304;47.456;19.160;2023-03-04T12:36:25;99991.46;;;14.12;27.45
61436;BME280;47304;47.456;19.160;2023-03-04T12:50:26;99974.54;;;13.59;28.79
61436;BME280;47304;47.456;19.160;2023-03-04T12:53:16;99975.36;;;13.44;28.98
61436;BME280;47304;47.456;19.160;2023-03-04T12:55:46;99976.20;;;13.35;29.32
61436;BME280;47304;47.456;19.160;2023-03-04T12:58:22;99974.71;;;13.29;29.43
61436;BME280;47304;47.456;19.160;2023-03-04T13:00:52;99966.10;;;13.40;29.63
61436;BME280;47304;47.456;19.160;2023-03-04T13:14:05;99947.13;;;13.67;29.14
61436;BME280;47304;47.456;19.160;2023-03-04T13:16:37;99941.07;;;13.70;29.17
61436;BME280;47304;47.456;19.160;2023-03-04T13:19:43;99933.73;;;13.76;29.39
61436;BME280;47304;47.456;19.160;2023-03-04T13:22:33;99927.76;;;14.01;28.82
61436;BME280;47304;47.456;19.160;2023-03-04T13:41:13;99907.77;;;13.80;29.16
61436;BME280;47304;47.456;19.160;2023-03-04T13:43:42;99899.79;;;13.66;28.86
61436;BME280;47304;47.456;19.160;2023-03-04T13:51:57;99885.80;;;13.53;28.88
61436;BME280;47304;47.456;19.160;2023-03-04T13:54:26;99880.13;;;13.46;28.33
61436;BME280;47304;47.456;19.160;2023-03-04T13:57:17;99871.98;;;13.49;28.57
61436;BME280;47304;47.456;19.160;2023-03-04T13:59:55;99867.48;;;13.54;28.46
61436;BME280;47304;47.456;19.160;2023-03-04T14:02:24;99868.84;;;13.57;28.33
61436;BME280;47304;47.456;19.160;2023-03-04T14:07:25;99858.27;;;13.57;27.16
61436;BME280;47304;47.456;19.160;2023-03-04T14:10:06;99857.85;;;13.60;26.70
61436;BME280;47304;47.456;19.160;2023-03-04T14:12:39;99858.46;;;13.65;26.16
61436;BME280;47304;47.456;19.160;2023-03-04T14:17:39;99854.31;;;13.85;25.57
61436;BME280;47304;47.456;19.160;2023-03-04T14:22:56;99852.14;;;13.88;25.05
61436;BME280;47304;47.456;19.160;2023-03-04T14:25:28;99855.19;;;13.85;24.59
61436;BME280;47304;47.456;19.160;2023-03-04T14:28:11;99857.20;;;13.91;24.27
61436;BME280;47304;47.456;19.160;2023-03-04T14:30:43;99855.05;;;14.00;24.78
61436;BME280;47304;47.456;19.160;2023-03-04T14:33:27;99853.02;;;14.04;24.58
61436;BME280;47304;47.456;19.160;2023-03-04T14:35:59;99853.79;;;14.24;24.75
61436;BME280;47304;47.456;19.160;2023-03-04T14:38:37;99848.86;;;14.46;24.64
61436;BME280;47304;47.456;19.160;2023-03-04T14:41:08;99852.13;;;14.71;24.11
61436;BME280;47304;47.456;19.160;2023-03-04T14:43:46;99848.08;;;15.05;23.92
61436;BME280;47304;47.456;19.160;2023-03-04T14:46:15;99849.52;;;15.35;23.51
61436;BME280;47304;47.456;19.160;2023-03-04T14:48:48;99852.40;;;15.59;22.74
61436;BME280;47304;47.456;19.160;2023-03-04T14:54:42;99851.33;;;16.01;23.08
61436;BME280;47304;47.456;19.160;2023-03-04T14:57:24;99844.48;;;16.39;22.43
61436;BME280;47304;47.456;19.160;2023-03-04T14:59:52;99844.31;;;16.33;22.32
61436;BME280;47304;47.456;19.160;2023-03-04T15:02:27;99845.82;;;16.30;22.11
61436;BME280;47304;47.456;19.160;2023-03-04T15:04:54;99845.55;;;16.49;22.16
61436;BME280;47304;47.456;19.160;2023-03-04T15:07:27;99837.27;;;16.91;21.75
61436;BME280;47304;47.456;19.160;2023-03-04T15:09:54;99840.66;;;17.50;21.63
61436;BME280;47304;47.456;19.160;2023-03-04T15:12:26;99841.84;;;18.12;21.25
61436;BME280;47304;47.456;19.160;2023-03-04T15:14:56;99839.70;;;18.56;20.76
61436;BME280;47304;47.456;19.160;2023-03-04T15:17:36;99840.57;;;19.11;20.40
61436;BME280;47304;47.456;19.160;2023-03-04T15:22:33;99848.66;;;19.91;20.07
61436;BME280;47304;47.456;19.160;2023-03-04T15:25:00;99853.91;;;19.97;20.13
61436;BME280;47304;47.456;19.160;2023-03-04T15:27:28;99851.80;;;20.04;19.95